createdAt,value
2023-04-06T00:01:52.508Z,36.19
2023-04-06T00:04:20.299Z,35.96
2023-04-06T00:06:47.759Z,35.91
2023-04-06T00:09:15.571Z,35.45
2023-04-06T00:11:43.088Z,35.93
2023-04-06T00:14:10.760Z,35.82
2023-04-06T00:16:38.292Z,36.29
2023-04-06T00:19:05.906Z,36.20
2023-04-06T00:21:33.666Z,36.22
2023-04-06T00:24:01.382Z,36.43
2023-04-06T00:26:28.880Z,36.97
2023-04-06T00:28:57.151Z,36.64
2023-04-06T00:31:24.809Z,36.07
2023-04-06T00:33:52.327Z,36.11
2023-04-06T00:36:20.384Z,36.52
2023-04-06T00:38:47.950Z,35.92
2023-04-06T00:41:15.453Z,35.87
2023-04-06T00:43:42.933Z,36.20
2023-04-06T00:46:10.585Z,36.76
2023-04-06T00:48:38.217Z,36.46
2023-04-06T00:51:06.679Z,36.34
2023-04-06T00:53:34.270Z,36.80
2023-04-06T00:56:03.134Z,36.34
2023-04-06T00:58:41.507Z,36.38
2023-04-06T01:01:10.800Z,36.32
2023-04-06T01:03:38.683Z,36.59
2023-04-06T01:06:06.486Z,36.51
2023-04-06T01:08:38.707Z,35.91
2023-04-06T01:11:19.969Z,36.28
2023-04-06T01:13:49.509Z,36.73
2023-04-06T01:16:26.023Z,36.54
2023-04-06T01:19:24.614Z,35.77
2023-04-06T01:21:55.008Z,36.18
2023-04-06T01:24:31.473Z,36.64
2023-04-06T01:27:05.097Z,36.35
2023-04-06T01:29:42.579Z,36.64
2023-04-06T01:32:12.188Z,36.61
2023-04-06T01:34:48.096Z,36.51
2023-04-06T01:37:15.593Z,36.98
2023-04-06T01:39:45.550Z,36.94
2023-04-06T01:42:19.544Z,36.87
2023-04-06T01:44:49.070Z,37.13
2023-04-06T01:47:17.483Z,37.29
2023-04-06T01:49:46.017Z,37.49
2023-04-06T01:52:16.587Z,37.15
2023-04-06T01:54:50.585Z,37.47
2023-04-06T01:57:26.867Z,37.24
2023-04-06T02:00:00.373Z,37.92
2023-04-06T02:02:40.930Z,37.09
2023-04-06T02:05:15.391Z,37.86
2023-04-06T02:07:43.008Z,36.93
2023-04-06T02:10:15.077Z,37.38
2023-04-06T02:12:43.841Z,37.32
2023-04-06T02:15:15.977Z,37.25
2023-04-06T02:17:43.940Z,37.47
2023-04-06T02:20:11.588Z,37.27
2023-04-06T02:22:40.192Z,38.18
2023-04-06T02:25:08.738Z,37.32
2023-04-06T02:27:37.054Z,37.50
2023-04-06T02:30:05.325Z,37.58
2023-04-06T02:32:33.057Z,37.19
2023-04-06T02:35:01.321Z,37.09
2023-04-06T02:37:30.735Z,37.79
2023-04-06T02:39:59.457Z,37.97
2023-04-06T02:42:28.076Z,37.50
2023-04-06T02:44:55.999Z,37.38
2023-04-06T02:47:27.784Z,37.86
2023-04-06T02:49:55.394Z,38.01
2023-04-06T02:52:22.959Z,37.90
2023-04-06T02:54:52.094Z,38.05
2023-04-06T02:57:25.796Z,38.04
2023-04-06T02:59:53.458Z,37.76
2023-04-06T03:02:27.210Z,37.74
2023-04-06T03:05:04.309Z,37.48
2023-04-06T03:07:36.201Z,37.58
2023-04-06T03:10:04.316Z,36.95
2023-04-06T03:12:33.478Z,37.81
2023-04-06T03:15:19.765Z,37.41
2023-04-06T03:17:52.480Z,37.69
2023-04-06T03:20:34.867Z,37.95
2023-04-06T03:23:02.504Z,37.90
2023-04-06T03:25:35.981Z,37.73
2023-04-06T03:28:06.771Z,38.00
2023-04-06T03:30:40.014Z,37.70
2023-04-06T03:33:07.766Z,37.73
2023-04-06T03:35:43.190Z,37.95
2023-04-06T03:38:10.844Z,37.83
2023-04-06T03:40:38.321Z,37.65
2023-04-06T03:43:06.088Z,37.78
2023-04-06T03:45:36.376Z,38.44
2023-04-06T03:48:06.196Z,38.40
2023-04-06T03:50:36.602Z,38.38
2023-04-06T03:53:04.210Z,38.44
2023-04-06T03:55:31.774Z,38.53
2023-04-06T03:57:59.329Z,38.18
2023-04-06T04:00:26.881Z,38.22
2023-04-06T04:02:56.468Z,38.12
2023-04-06T04:05:26.250Z,38.20
2023-04-06T04:07:54.232Z,38.33
2023-04-06T04:10:25.939Z,38.70
2023-04-06T04:12:53.505Z,38.43
2023-04-06T04:15:21.206Z,38.37
2023-04-06T04:17:50.467Z,38.61
2023-04-06T04:20:18.473Z,38.30
2023-04-06T04:22:46.060Z,38.88
2023-04-06T04:25:15.299Z,38.72
2023-04-06T04:27:47.939Z,38.79
2023-04-06T04:30:16.315Z,38.91
2023-04-06T04:32:43.969Z,38.60
2023-04-06T04:35:12.304Z,38.70
2023-04-06T04:37:42.783Z,38.63
2023-04-06T04:40:12.425Z,38.59
2023-04-06T04:43:02.851Z,38.66
2023-04-06T04:45:34.382Z,38.71
2023-04-06T04:48:11.400Z,38.51
2023-04-06T04:50:50.912Z,38.12
2023-04-06T04:53:21.902Z,38.41
2023-04-06T04:55:49.757Z,38.14
2023-04-06T04:58:19.870Z,38.63
2023-04-06T05:00:58.962Z,38.87
2023-04-06T05:03:28.192Z,39.35
2023-04-06T05:06:03.221Z,38.13
2023-04-06T05:08:34.790Z,38.51
2023-04-06T05:11:03.078Z,38.61
2023-04-06T05:13:35.665Z,38.32
2023-04-06T05:16:09.554Z,38.25
2023-04-06T05:18:37.264Z,38.87
2023-04-06T05:21:06.359Z,39.09
2023-04-06T05:23:43.123Z,39.35
2023-04-06T05:26:10.639Z,39.38
2023-04-06T05:28:38.528Z,38.98
2023-04-06T05:31:07.208Z,39.12
2023-04-06T05:33:44.946Z,38.64
2023-04-06T05:36:16.431Z,39.21
2023-04-06T05:38:46.801Z,39.66
2023-04-06T05:41:43.465Z,39.37
2023-04-06T05:44:12.458Z,39.37
2023-04-06T05:46:42.992Z,39.10
2023-04-06T05:49:15.102Z,39.59
2023-04-06T05:51:42.631Z,39.82
2023-04-06T05:54:10.256Z,40.02
2023-04-06T05:56:38.324Z,39.61
2023-04-06T05:59:07.556Z,39.83
2023-04-06T06:01:35.869Z,39.89
2023-04-06T06:04:04.602Z,39.88
2023-04-06T06:06:34.272Z,39.51
2023-04-06T06:09:16.013Z,39.81
2023-04-06T06:11:52.696Z,39.90
2023-04-06T06:14:23.974Z,39.46
2023-04-06T06:16:51.580Z,40.11
2023-04-06T06:19:20.242Z,40.12
2023-04-06T06:21:51.153Z,39.76
2023-04-06T06:24:18.703Z,40.22
2023-04-06T06:26:46.291Z,40.34
2023-04-06T06:29:15.603Z,39.82
2023-04-06T06:31:43.127Z,39.98
2023-04-06T06:34:11.479Z,39.80
2023-04-06T06:36:39.224Z,40.41
2023-04-06T06:39:09.655Z,39.82
2023-04-06T06:41:38.374Z,40.63
2023-04-06T06:44:07.228Z,40.25
2023-04-06T06:46:36.496Z,40.03
2023-04-06T06:49:04.249Z,40.24
2023-04-06T06:51:31.837Z,40.46
2023-04-06T06:53:59.328Z,40.30
2023-04-06T06:56:28.927Z,40.30
2023-04-06T06:58:57.174Z,39.74
2023-04-06T07:01:24.706Z,39.99
2023-04-06T07:03:52.373Z,39.79
2023-04-06T07:06:19.918Z,40.07
2023-04-06T07:08:47.475Z,40.91
2023-04-06T07:11:14.951Z,40.45
2023-04-06T07:13:43.598Z,40.59
2023-04-06T07:16:11.970Z,40.49
2023-04-06T07:18:39.561Z,40.46
2023-04-06T07:21:07.096Z,40.48
2023-04-06T07:23:34.592Z,40.75
2023-04-06T07:26:02.198Z,40.37
2023-04-06T07:28:29.718Z,40.57
2023-04-06T07:30:57.402Z,40.47
2023-04-06T07:33:28.460Z,39.99
2023-04-06T07:35:56.532Z,40.46
2023-04-06T07:38:24.207Z,40.51
2023-04-06T07:40:53.014Z,40.19
2023-04-06T07:43:20.940Z,40.10
2023-04-06T07:45:49.432Z,40.56
2023-04-06T07:48:18.139Z,40.30
2023-04-06T07:50:46.356Z,39.98
2023-04-06T07:53:14.019Z,40.19
2023-04-06T07:55:41.696Z,40.32
2023-04-06T07:58:09.510Z,40.45
2023-04-06T08:00:36.994Z,40.31
2023-04-06T08:03:04.578Z,40.29
2023-04-06T08:05:32.145Z,40.19
2023-04-06T08:07:59.643Z,40.15
2023-04-06T08:10:27.144Z,40.21
2023-04-06T08:12:54.641Z,40.21
2023-04-06T08:15:22.189Z,40.20
2023-04-06T08:17:49.711Z,40.10
2023-04-06T08:20:17.318Z,39.63
2023-04-06T08:22:44.937Z,39.78
2023-04-06T08:25:12.486Z,39.71
2023-04-06T08:27:39.992Z,39.51
2023-04-06T08:30:07.847Z,39.62
2023-04-06T08:32:35.355Z,39.22
2023-04-06T08:35:02.986Z,39.24
2023-04-06T08:37:30.797Z,38.54
2023-04-06T08:39:58.973Z,38.70
2023-04-06T08:42:29.802Z,38.48
2023-04-06T08:44:57.329Z,38.50
2023-04-06T08:47:25.193Z,38.38
2023-04-06T08:49:54.693Z,38.22
2023-04-06T08:52:22.256Z,38.18
2023-04-06T08:54:49.782Z,37.81
2023-04-06T08:57:19.574Z,37.62
2023-04-06T08:59:47.319Z,37.36
2023-04-06T09:02:19.241Z,37.80
2023-04-06T09:04:53.221Z,37.26
2023-04-06T09:07:21.647Z,37.71
2023-04-06T09:09:49.128Z,37.30
2023-04-06T09:12:31.724Z,37.32
2023-04-06T09:15:00.891Z,36.90
2023-04-06T09:17:33.343Z,37.06
2023-04-06T09:20:05.694Z,36.80
2023-04-06T09:22:44.978Z,36.20
2023-04-06T09:25:21.865Z,36.23
2023-04-06T09:27:58.910Z,36.26
2023-04-06T09:30:27.663Z,35.61
2023-04-06T09:32:58.185Z,35.74
2023-04-06T09:35:27.687Z,35.72
2023-04-06T09:37:56.289Z,34.81
2023-04-06T09:40:23.945Z,34.80
2023-04-06T09:42:53.704Z,34.74
2023-04-06T09:45:21.911Z,34.43
2023-04-06T09:47:52.248Z,34.65
2023-04-06T09:50:22.097Z,34.03
2023-04-06T09:52:55.165Z,34.46
2023-04-06T09:55:36.064Z,34.60
2023-04-06T09:58:08.034Z,33.78
2023-04-06T10:01:10.726Z,34.00
2023-04-06T10:03:52.382Z,33.82
2023-04-06T10:06:24.592Z,33.42
2023-04-06T10:08:55.684Z,32.28
2023-04-06T10:11:23.828Z,32.80
2023-04-06T10:13:51.441Z,32.30
2023-04-06T10:16:19.273Z,32.48
2023-04-06T10:18:55.319Z,32.22
2023-04-06T10:21:27.453Z,31.67
2023-04-06T10:24:03.368Z,31.78
2023-04-06T10:26:32.202Z,31.96
2023-04-06T10:29:05.190Z,31.56
2023-04-06T10:31:33.235Z,31.81
2023-04-06T10:34:02.944Z,31.75
2023-04-06T10:36:34.649Z,31.77
2023-04-06T10:39:06.741Z,31.36
2023-04-06T10:41:49.095Z,31.70
2023-04-06T10:44:24.530Z,31.87
2023-04-06T10:46:57.897Z,31.66
2023-04-06T10:49:27.342Z,31.15
2023-04-06T10:51:57.163Z,30.73
2023-04-06T10:54:27.023Z,31.01
2023-04-06T10:56:54.728Z,30.62
2023-04-06T10:59:23.095Z,30.63
2023-04-06T11:01:51.209Z,30.97
2023-04-06T11:04:21.986Z,30.89
2023-04-06T11:06:51.474Z,30.37
2023-04-06T11:09:30.589Z,29.48
2023-04-06T11:11:58.347Z,29.70
2023-04-06T11:14:27.370Z,29.63
2023-04-06T11:16:55.140Z,29.87
2023-04-06T11:19:22.760Z,29.68
2023-04-06T11:21:50.597Z,29.82
2023-04-06T11:24:25.312Z,30.14
2023-04-06T11:26:58.234Z,29.55
2023-04-06T11:29:29.323Z,29.78
2023-04-06T11:32:05.523Z,29.82
2023-04-06T11:34:39.469Z,29.74
2023-04-06T11:37:11.835Z,30.36
2023-04-06T11:39:52.515Z,29.53
2023-04-06T11:42:28.781Z,29.79
2023-04-06T11:45:00.945Z,28.87
2023-04-06T11:47:35.778Z,29.45
2023-04-06T11:50:12.728Z,29.07
2023-04-06T11:52:42.087Z,28.88
2023-04-06T11:55:19.087Z,28.80
2023-04-06T11:57:46.602Z,28.75
2023-04-06T12:00:14.763Z,28.74
2023-04-06T12:02:47.972Z,28.44
2023-04-06T12:05:16.292Z,28.45
2023-04-06T12:07:44.015Z,28.31
2023-04-06T12:10:11.672Z,28.30
2023-04-06T12:12:39.232Z,28.16
2023-04-06T12:15:07.901Z,27.51
2023-04-06T12:17:35.748Z,27.74
2023-04-06T12:20:09.288Z,27.49
2023-04-06T12:22:45.601Z,27.70
2023-04-06T12:25:14.136Z,27.92
2023-04-06T12:27:41.645Z,27.93
2023-04-06T12:30:09.781Z,27.61
2023-04-06T12:32:37.378Z,27.20
2023-04-06T12:35:05.301Z,27.10
2023-04-06T12:37:32.777Z,26.13
2023-04-06T12:40:01.334Z,26.32
2023-04-06T12:42:28.833Z,26.66
2023-04-06T12:44:56.311Z,26.65
2023-04-06T12:47:23.948Z,27.11
2023-04-06T12:49:51.639Z,26.71
2023-04-06T12:52:19.128Z,26.33
2023-04-06T12:54:48.218Z,26.57
2023-04-06T12:57:16.558Z,26.19
2023-04-06T12:59:45.530Z,26.04
2023-04-06T13:02:13.335Z,26.21
2023-04-06T13:04:40.971Z,26.30
2023-04-06T13:07:08.490Z,25.95
2023-04-06T13:09:35.980Z,25.71
2023-04-06T13:12:03.890Z,25.82
2023-04-06T13:14:32.261Z,25.23
2023-04-06T13:17:00.574Z,25.28
2023-04-06T13:19:28.178Z,25.10
2023-04-06T13:21:55.673Z,24.75
2023-04-06T13:24:24.065Z,24.34
2023-04-06T13:26:51.612Z,24.11
2023-04-06T13:29:19.099Z,24.20
2023-04-06T13:31:46.671Z,23.84
2023-04-06T13:34:14.229Z,23.71
2023-04-06T13:36:42.760Z,23.93
2023-04-06T13:39:10.335Z,24.03
2023-04-06T13:41:37.882Z,24.00
2023-04-06T13:44:05.422Z,23.79
2023-04-06T13:46:33.152Z,23.82
2023-04-06T13:49:00.883Z,23.69
2023-04-06T13:51:28.730Z,24.08
2023-04-06T13:53:56.304Z,23.56
2023-04-06T13:56:23.781Z,23.66
2023-04-06T13:58:54.709Z,23.25
2023-04-06T14:01:22.284Z,22.95
2023-04-06T14:03:50.643Z,23.39
2023-04-06T14:06:30.283Z,22.97
2023-04-06T14:08:58.830Z,23.24
2023-04-06T14:11:27.169Z,22.46
2023-04-06T14:13:57.373Z,22.62
2023-04-06T14:16:25.996Z,22.61
2023-04-06T14:18:53.575Z,22.45
2023-04-06T14:21:21.278Z,22.62
2023-04-06T14:23:48.835Z,22.83
2023-04-06T14:26:16.359Z,22.94
2023-04-06T14:28:43.879Z,22.87
2023-04-06T14:31:14.539Z,22.48
2023-04-06T14:33:43.420Z,22.45
2023-04-06T14:36:11.920Z,22.55
2023-04-06T14:38:40.387Z,22.86
2023-04-06T14:41:09.980Z,22.47
2023-04-06T14:43:37.506Z,22.72
2023-04-06T14:46:05.308Z,22.80
2023-04-06T14:48:32.833Z,22.56
2023-04-06T14:51:00.520Z,22.60
2023-04-06T14:53:28.879Z,22.47
2023-04-06T14:55:57.336Z,22.34
2023-04-06T14:58:26.539Z,22.54
2023-04-06T15:01:02.074Z,22.62
2023-04-06T15:03:31.125Z,22.52
2023-04-06T15:05:58.867Z,22.71
2023-04-06T15:08:26.469Z,22.55
2023-04-06T15:10:56.941Z,22.45
2023-04-06T15:13:24.500Z,22.65
2023-04-06T15:15:52.655Z,22.86
2023-04-06T15:18:20.912Z,22.75
2023-04-06T15:20:48.682Z,23.11
2023-04-06T15:23:16.239Z,22.85
2023-04-06T15:25:43.724Z,22.97
2023-04-06T15:28:11.427Z,23.13
2023-04-06T15:30:38.939Z,23.14
2023-04-06T15:33:09.124Z,23.23
2023-04-06T15:35:42.906Z,23.47
2023-04-06T15:38:10.775Z,23.34
2023-04-06T15:40:46.801Z,23.63
2023-04-06T15:43:16.681Z,23.49
2023-04-06T15:45:44.264Z,23.69
2023-04-06T15:48:11.812Z,23.74
2023-04-06T15:50:39.373Z,24.40
2023-04-06T15:53:07.241Z,24.84
2023-04-06T15:55:34.864Z,25.11
2023-04-06T15:58:02.366Z,25.30
2023-04-06T16:00:29.894Z,25.39
2023-04-06T16:02:57.595Z,25.63
2023-04-06T16:05:27.146Z,25.27
2023-04-06T16:07:56.544Z,25.19
2023-04-06T16:10:24.223Z,25.37
2023-04-06T16:12:52.374Z,25.41
2023-04-06T16:15:19.844Z,25.21
2023-04-06T16:17:47.432Z,25.43
2023-04-06T16:20:16.034Z,24.97
2023-04-06T16:22:43.598Z,25.23
2023-04-06T16:25:12.566Z,24.67
2023-04-06T16:27:40.126Z,24.29
2023-04-06T16:30:08.959Z,23.76
2023-04-06T16:32:36.696Z,23.71
2023-04-06T16:35:05.269Z,23.41
2023-04-06T16:37:32.922Z,23.59
2023-04-06T16:40:00.499Z,23.46
2023-04-06T16:42:28.097Z,23.63
2023-04-06T16:44:55.794Z,23.56
2023-04-06T16:47:23.870Z,23.32
2023-04-06T16:49:54.450Z,23.71
2023-04-06T16:52:33.659Z,23.40
2023-04-06T16:55:01.648Z,23.55
2023-04-06T16:57:29.764Z,23.49
2023-04-06T16:59:57.275Z,23.29
2023-04-06T17:02:25.340Z,23.29
2023-04-06T17:04:52.984Z,23.16
2023-04-06T17:07:25.361Z,23.24
2023-04-06T17:09:52.924Z,23.48
2023-04-06T17:12:20.529Z,23.53
2023-04-06T17:14:48.009Z,23.84
2023-04-06T17:17:16.538Z,23.97
2023-04-06T17:19:44.194Z,24.32
2023-04-06T17:22:11.745Z,24.57
2023-04-06T17:24:39.253Z,24.85
2023-04-06T17:27:07.509Z,24.99
2023-04-06T17:29:36.648Z,25.09
2023-04-06T17:32:04.196Z,25.54
2023-04-06T17:34:31.696Z,25.62
2023-04-06T17:36:59.186Z,26.00
2023-04-06T17:39:26.745Z,26.11
2023-04-06T17:41:54.230Z,26.22
2023-04-06T17:44:21.785Z,26.77
2023-04-06T17:46:49.308Z,26.32
2023-04-06T17:49:16.873Z,26.35
2023-04-06T17:51:45.108Z,26.47
2023-04-06T17:54:13.014Z,26.53
2023-04-06T17:56:40.754Z,26.54
2023-04-06T17:59:11.273Z,26.57
2023-04-06T18:01:40.127Z,26.78
2023-04-06T18:04:07.774Z,26.73
2023-04-06T18:06:35.700Z,26.65
2023-04-06T18:09:03.630Z,26.77
2023-04-06T18:11:32.521Z,26.93
2023-04-06T18:14:00.153Z,26.69
2023-04-06T18:16:28.285Z,26.86
2023-04-06T18:18:56.641Z,26.93
2023-04-06T18:21:24.180Z,26.83
2023-04-06T18:23:52.216Z,26.85
2023-04-06T18:26:21.306Z,26.85
2023-04-06T18:28:48.867Z,26.85
2023-04-06T18:31:16.557Z,26.87
2023-04-06T18:33:44.935Z,26.93
2023-04-06T18:36:14.199Z,27.27
2023-04-06T18:38:49.539Z,27.03
2023-04-06T18:41:18.022Z,27.12
2023-04-06T18:43:45.733Z,27.29
2023-04-06T18:46:15.507Z,27.28
2023-04-06T18:48:43.602Z,27.22
2023-04-06T18:51:11.296Z,27.45
2023-04-06T18:53:40.102Z,27.52
2023-04-06T18:56:18.689Z,27.40
2023-04-06T18:58:48.076Z,27.45
2023-04-06T19:01:28.249Z,27.74
2023-04-06T19:03:57.819Z,27.88
2023-04-06T19:06:29.207Z,27.92
2023-04-06T19:08:56.928Z,28.37
2023-04-06T19:11:25.111Z,28.37
2023-04-06T19:13:56.897Z,28.58
2023-04-06T19:16:29.070Z,28.96
2023-04-06T19:18:56.767Z,29.05
2023-04-06T19:21:26.269Z,28.97
2023-04-06T19:23:55.282Z,29.30
2023-04-06T19:26:24.134Z,29.51
2023-04-06T19:28:51.747Z,29.73
2023-04-06T19:31:19.970Z,29.54
2023-04-06T19:33:47.984Z,30.13
2023-04-06T19:36:16.070Z,29.97
2023-04-06T19:38:43.859Z,30.01
2023-04-06T19:41:11.458Z,30.20
2023-04-06T19:43:39.328Z,30.67
2023-04-06T19:46:08.693Z,30.88
2023-04-06T19:48:36.240Z,30.88
2023-04-06T19:51:03.850Z,31.13
2023-04-06T19:53:31.622Z,30.93
2023-04-06T19:55:59.206Z,31.30
2023-04-06T19:58:26.738Z,31.43
2023-04-06T20:00:54.204Z,31.94
2023-04-06T20:03:21.838Z,31.60
2023-04-06T20:05:49.496Z,31.72
2023-04-06T20:08:16.983Z,31.94
2023-04-06T20:10:44.512Z,32.05
2023-04-06T20:13:12.360Z,32.18
2023-04-06T20:15:40.102Z,32.62
2023-04-06T20:18:07.627Z,32.86
2023-04-06T20:20:35.240Z,32.86
2023-04-06T20:23:02.712Z,32.82
2023-04-06T20:25:31.300Z,33.31
2023-04-06T20:27:58.858Z,33.32
2023-04-06T20:30:26.556Z,34.33
2023-04-06T20:32:54.149Z,34.29
2023-04-06T20:35:22.028Z,35.38
2023-04-06T20:37:49.520Z,35.33
2023-04-06T20:40:17.676Z,35.29
2023-04-06T20:42:46.227Z,35.66
2023-04-06T20:45:13.878Z,35.17
2023-04-06T20:47:41.393Z,36.24
2023-04-06T20:50:09.299Z,36.69
2023-04-06T20:52:38.021Z,36.55
2023-04-06T20:55:06.070Z,36.75
2023-04-06T20:57:33.533Z,36.97
2023-04-06T21:00:01.141Z,36.85
2023-04-06T21:02:28.843Z,37.24
2023-04-06T21:04:56.452Z,37.38
2023-04-06T21:07:23.934Z,37.89
2023-04-06T21:09:51.424Z,37.70
2023-04-06T21:12:19.544Z,37.63
2023-04-06T21:14:47.032Z,38.24
2023-04-06T21:17:14.509Z,38.32
2023-04-06T21:19:42.047Z,38.95
2023-04-06T21:22:09.608Z,39.27
2023-04-06T21:24:37.248Z,39.43
2023-04-06T21:27:04.745Z,40.17
2023-04-06T21:29:32.715Z,40.25
2023-04-06T21:32:00.208Z,40.48
2023-04-06T21:34:27.772Z,40.62
2023-04-06T21:36:55.345Z,40.49
2023-04-06T21:39:26.804Z,40.87
2023-04-06T21:41:54.278Z,41.44
2023-04-06T21:44:21.782Z,42.08
2023-04-06T21:46:49.321Z,42.21
2023-04-06T21:49:16.828Z,42.48
2023-04-06T21:51:44.369Z,42.93
2023-04-06T21:54:12.338Z,42.82
2023-04-06T21:56:40.738Z,42.93
2023-04-06T21:59:08.313Z,43.04
2023-04-06T22:01:35.825Z,42.87
2023-04-06T22:04:03.465Z,43.15
2023-04-06T22:06:31.115Z,43.49
2023-04-06T22:09:00.313Z,43.88
2023-04-06T22:11:27.801Z,43.97
2023-04-06T22:13:55.378Z,44.31
2023-04-06T22:16:23.067Z,44.36
2023-04-06T22:18:50.694Z,44.64
2023-04-06T22:21:18.188Z,44.83
2023-04-06T22:23:45.735Z,44.90
2023-04-06T22:26:13.645Z,44.92
2023-04-06T22:28:42.222Z,44.93
2023-04-06T22:31:09.838Z,44.93
2023-04-06T22:33:37.313Z,45.38
2023-04-06T22:36:05.289Z,45.54
2023-04-06T22:38:32.828Z,45.82
2023-04-06T22:41:00.471Z,45.73
2023-04-06T22:43:27.960Z,46.03
2023-04-06T22:45:55.661Z,46.21
2023-04-06T22:48:23.342Z,46.38
2023-04-06T22:50:51.165Z,46.15
2023-04-06T22:53:18.657Z,46.19
2023-04-06T22:55:46.414Z,46.17
2023-04-06T22:58:13.966Z,46.63
2023-04-06T23:00:41.473Z,46.44
2023-04-06T23:03:09.076Z,47.21
2023-04-06T23:05:36.622Z,46.95
2023-04-06T23:08:04.284Z,46.83
2023-04-06T23:10:31.861Z,47.38
2023-04-06T23:12:59.433Z,46.98
2023-04-06T23:15:26.934Z,47.16
2023-04-06T23:17:54.498Z,47.30
2023-04-06T23:20:22.251Z,47.06
2023-04-06T23:22:49.794Z,46.97
2023-04-06T23:25:17.336Z,47.10
2023-04-06T23:27:44.829Z,46.97
2023-04-06T23:30:12.576Z,47.34
2023-04-06T23:32:40.535Z,47.27
2023-04-06T23:35:08.830Z,47.68
2023-04-06T23:37:36.340Z,47.58
2023-04-06T23:40:04.553Z,47.57
2023-04-06T23:42:32.109Z,47.75
2023-04-06T23:45:00.373Z,47.51
2023-04-06T23:47:27.916Z,47.38
2023-04-06T23:49:56.272Z,47.61
2023-04-06T23:52:23.809Z,48.09
2023-04-06T23:54:51.342Z,48.09
2023-04-06T23:57:18.869Z,47.57
2023-04-06T23:59:46.377Z,48.02
